Cleveld, Tennessee
Current Conditions -  °F | °C
As of 12:55 AM on Tuesday 21 Oct 2014 (Local Time) from KRZR Reporting Station
Clear Clear  
Wind Chill: 48°   Ceiling: Unl
Heat Index: 48°   Visibility: 10mi
Dew Point: 46°   Wind: 0mph
Humidity: 93%   Direction: NA
Pressure: 30.03"   Gusts: NA
Location:  35.2131°N, 84.8428°W
Report Text: KRZR 210455Z AUTO 00000KT 10SM CLR 09/08 A3003 RMK
Loading
Personal Weather Stations






























Interactive Weather Map
Tropical Storm Tracking
New forecast layout! Learn more

10-Day Weather Forecast

Advertisements
Track Severe Weather on mobile